Search for airport 
image banner adimage banner adimage banner ad
image banner ad

CA65 - Alta Vista

Located in Watsonville, United States

ICAO - CA65, IATA -

Data provided by Airmate  

General information

Coordinates: N36°58'13" W121°51'45"
Elevation is 480 feet MSL.
Magnetic variation is 16° East
View others Airports in California

Operational data

Special qualification required
Current time UTC:
Current local time:
Weather at : KWVI - Watsonville Muni ( 8 km )
METAR: KWVI 211153Z AUTO 26003KT 10SM OVC008 13/12 A2992 RMK AO2 SLP133 T01330122 10139 20128 53000
View NOTAMs / SUP AIP / TFR affecting this airport [VIEW]
Communications frequencies: [VIEW]

Runways:

Airport contact information

Address: Watsonville United States

Satellite view of CA65